Archival Weather

Chicago O'Hare International

Chicago, Illinois (KORD)

Report from: Saturday, December 31, 2022 5:51 AM CST
Current time: Monday, March 4, 2024 7:18 PM CST

Current weather – Weather history – Daily summaries
Weather forecast

Temperature-2.8°C (27.0°F)
Dew point-5.0°C (23.0°F)
Winds Calm
Visibility10 mi. (16.1 km)
Clouds Ceiling: Broken clouds 20,000 ft. (6,096 m)
Overcast 25,000 ft. (7,620 m)
Altimeter29.92 in.Hg (1013 mB)
Relative humidity85 %
Density altitude-2,152 ft. (-656 m)
Sea-level pressure101.4 kPa (1014 mB, 29.95 in.Hg)
Max temp last 6 hours-1.1°C (30.0°F)
Min temp last 6 hours-2.8°C (27.0°F)
Remarks Automated weather observing station with precipitation discriminator
Pressure falling more slowly
Flight conditions Visual Meteorological Conditions
Raw dataKORD 311151Z 00000KT 10SM BKN200 OVC250 M03/M05 A2992 RMK AO2 SLP141 T10281050 11011 21028 56004
An error has occurred. This application may no longer respond until reloaded. Reload 🗙